createdAt,value
2023-02-09T00:01:02.312Z,7.72
2023-02-09T00:03:29.713Z,7.80
2023-02-09T00:06:00.505Z,8.65
2023-02-09T00:08:28.284Z,7.63
2023-02-09T00:10:55.897Z,8.07
2023-02-09T00:13:24.090Z,7.93
2023-02-09T00:15:55.701Z,8.45
2023-02-09T00:18:24.697Z,8.88
2023-02-09T00:21:00.226Z,7.97
2023-02-09T00:23:29.587Z,8.05
2023-02-09T00:26:01.440Z,7.82
2023-02-09T00:28:28.755Z,7.72
2023-02-09T00:30:56.154Z,7.32
2023-02-09T00:33:23.280Z,8.02
2023-02-09T00:35:50.693Z,7.10
2023-02-09T00:38:17.850Z,7.55
2023-02-09T00:40:45.235Z,7.57
2023-02-09T00:43:12.692Z,7.15
2023-02-09T00:45:39.784Z,7.57
2023-02-09T00:48:06.853Z,7.97
2023-02-09T00:50:33.924Z,7.72
2023-02-09T00:53:01.050Z,7.55
2023-02-09T00:55:28.069Z,8.90
2023-02-09T00:57:55.092Z,8.65
2023-02-09T01:00:22.593Z,7.40
2023-02-09T01:02:49.674Z,8.50
2023-02-09T01:05:16.865Z,8.07
2023-02-09T01:07:44.960Z,8.68
2023-02-09T01:10:12.131Z,9.98
2023-02-09T01:12:42.545Z,9.38
2023-02-09T01:15:10.888Z,8.25
2023-02-09T01:17:38.540Z,7.70
2023-02-09T01:20:07.685Z,7.88
2023-02-09T01:22:36.806Z,8.13
2023-02-09T01:25:06.498Z,7.03
2023-02-09T01:27:34.139Z,7.32
2023-02-09T01:30:01.469Z,7.60
2023-02-09T01:32:28.492Z,8.15
2023-02-09T01:34:55.931Z,8.73
2023-02-09T01:37:22.968Z,8.38
2023-02-09T01:39:49.964Z,7.82
2023-02-09T01:42:19.793Z,7.95
2023-02-09T01:44:47.630Z,7.30
2023-02-09T01:47:16.300Z,8.00
2023-02-09T01:49:45.504Z,8.50
2023-02-09T01:52:18.872Z,7.55
2023-02-09T01:54:50.887Z,7.47
2023-02-09T01:57:25.635Z,8.20
2023-02-09T01:59:58.281Z,8.05
2023-02-09T02:02:27.443Z,8.57
2023-02-09T02:04:54.599Z,7.75
2023-02-09T02:07:43.305Z,8.48
2023-02-09T02:10:10.559Z,8.07
2023-02-09T02:12:38.714Z,8.48
2023-02-09T02:15:06.901Z,8.20
2023-02-09T02:17:59.010Z,9.18
2023-02-09T02:21:00.132Z,9.13
2023-02-09T02:23:44.479Z,7.85
2023-02-09T02:26:30.962Z,8.43
2023-02-09T02:29:19.375Z,8.43
2023-02-09T02:32:05.284Z,9.73
2023-02-09T02:34:50.689Z,7.97
2023-02-09T02:37:35.670Z,9.32
2023-02-09T02:40:09.467Z,8.05
2023-02-09T02:42:54.113Z,8.38
2023-02-09T02:45:43.176Z,9.43
2023-02-09T02:48:17.171Z,7.93
2023-02-09T02:50:50.551Z,8.73
2023-02-09T02:53:19.519Z,8.73
2023-02-09T02:55:48.335Z,9.35
2023-02-09T02:58:18.082Z,9.18
2023-02-09T03:00:50.380Z,9.02
2023-02-09T03:03:24.739Z,8.82
2023-02-09T03:05:53.020Z,8.80
2023-02-09T03:08:20.110Z,9.43
2023-02-09T03:10:47.738Z,10.57
2023-02-09T03:13:39.805Z,8.90
2023-02-09T03:16:18.281Z,8.20
2023-02-09T03:18:52.758Z,8.57
2023-02-09T03:21:45.614Z,9.48
2023-02-09T03:24:24.523Z,9.15
2023-02-09T03:27:14.972Z,9.05
2023-02-09T03:29:45.141Z,9.30
2023-02-09T03:32:12.503Z,9.45
2023-02-09T03:34:39.637Z,8.85
2023-02-09T03:37:06.691Z,8.43
2023-02-09T03:39:33.788Z,9.68
2023-02-09T03:42:00.829Z,8.85
2023-02-09T03:44:27.955Z,8.52
2023-02-09T03:47:03.933Z,8.73
2023-02-09T03:49:33.832Z,9.50
2023-02-09T03:52:02.148Z,9.02
2023-02-09T03:54:30.713Z,9.00
2023-02-09T03:56:58.655Z,9.00
2023-02-09T03:59:26.839Z,9.07
2023-02-09T04:01:56.739Z,9.25
2023-02-09T04:04:24.824Z,9.93
2023-02-09T04:06:52.196Z,8.55
2023-02-09T04:09:19.388Z,9.68
2023-02-09T04:11:47.187Z,9.88
2023-02-09T04:14:14.857Z,9.52
2023-02-09T04:16:41.950Z,9.25
2023-02-09T04:19:09.791Z,10.25
2023-02-09T04:21:38.475Z,11.77
2023-02-09T04:24:06.722Z,9.60
2023-02-09T04:26:34.803Z,9.95
2023-02-09T04:29:01.795Z,8.75
2023-02-09T04:31:29.021Z,9.07
2023-02-09T04:33:56.334Z,9.95
2023-02-09T04:36:23.471Z,9.40
2023-02-09T04:38:50.609Z,9.73
2023-02-09T04:41:17.677Z,9.77
2023-02-09T04:43:46.065Z,10.38
2023-02-09T04:46:14.490Z,9.10
2023-02-09T04:48:42.330Z,10.05
2023-02-09T04:51:09.968Z,9.77
2023-02-09T04:53:37.449Z,10.35
2023-02-09T04:56:05.312Z,9.38
2023-02-09T04:58:51.063Z,8.80
2023-02-09T05:01:24.337Z,9.70
2023-02-09T05:03:51.984Z,9.38
2023-02-09T05:06:19.572Z,9.93
2023-02-09T05:08:47.463Z,11.77
2023-02-09T05:11:15.318Z,9.82
2023-02-09T05:13:42.885Z,10.50
2023-02-09T05:16:14.479Z,9.45
2023-02-09T05:18:41.502Z,10.52
2023-02-09T05:21:08.574Z,10.18
2023-02-09T05:23:35.601Z,9.50
2023-02-09T05:26:02.980Z,11.73
2023-02-09T05:28:30.213Z,11.32
2023-02-09T05:30:57.296Z,12.90
2023-02-09T05:33:25.747Z,11.45
2023-02-09T05:35:55.686Z,13.30
2023-02-09T05:38:23.235Z,12.63
2023-02-09T05:40:53.126Z,13.07
2023-02-09T05:43:20.340Z,12.40
2023-02-09T05:45:47.402Z,11.32
2023-02-09T05:48:14.532Z,10.70
2023-02-09T05:50:41.795Z,12.45
2023-02-09T05:53:09.949Z,10.75
2023-02-09T05:55:36.985Z,11.15
2023-02-09T05:58:04.766Z,10.45
2023-02-09T06:00:31.971Z,9.73
2023-02-09T06:02:59.060Z,10.27
2023-02-09T06:05:26.896Z,11.50
2023-02-09T06:07:54.038Z,10.63
2023-02-09T06:10:21.217Z,11.18
2023-02-09T06:12:48.372Z,10.70
2023-02-09T06:15:18.799Z,10.82
2023-02-09T06:17:46.406Z,12.82
2023-02-09T06:20:13.497Z,12.23
2023-02-09T06:22:40.504Z,13.23
2023-02-09T06:25:08.060Z,12.13
2023-02-09T06:27:36.040Z,11.65
2023-02-09T06:30:03.620Z,10.57
2023-02-09T06:32:30.647Z,12.50
2023-02-09T06:34:57.759Z,12.60
2023-02-09T06:37:24.811Z,13.85
2023-02-09T06:39:51.870Z,13.70
2023-02-09T06:42:18.875Z,14.48
2023-02-09T06:44:46.965Z,14.50
2023-02-09T06:47:13.985Z,13.05
2023-02-09T06:49:41.309Z,15.35
2023-02-09T06:52:08.532Z,13.38
2023-02-09T06:54:35.657Z,11.48
2023-02-09T06:57:02.901Z,12.32
2023-02-09T06:59:30.932Z,12.75
2023-02-09T07:01:57.964Z,13.13
2023-02-09T07:04:25.021Z,13.35
2023-02-09T07:06:52.092Z,13.65
2023-02-09T07:09:19.098Z,13.30
2023-02-09T07:11:46.123Z,14.38
2023-02-09T07:14:13.175Z,13.55
2023-02-09T07:16:40.190Z,13.05
2023-02-09T07:19:07.192Z,14.48
2023-02-09T07:21:34.187Z,12.40
2023-02-09T07:24:01.995Z,14.02
2023-02-09T07:26:29.330Z,14.38
2023-02-09T07:28:56.316Z,14.63
2023-02-09T07:31:23.494Z,13.77
2023-02-09T07:33:50.657Z,13.73
2023-02-09T07:36:17.826Z,14.57
2023-02-09T07:38:45.539Z,13.90
2023-02-09T07:41:21.197Z,13.32
2023-02-09T07:43:48.575Z,14.63
2023-02-09T07:46:17.378Z,13.85
2023-02-09T07:48:44.704Z,13.95
2023-02-09T07:51:17.171Z,14.38
2023-02-09T07:53:44.262Z,14.55
2023-02-09T07:56:11.874Z,15.95
2023-02-09T07:58:39.164Z,15.05
2023-02-09T08:01:08.649Z,17.88
2023-02-09T08:03:38.350Z,17.33
2023-02-09T08:06:20.917Z,16.40
2023-02-09T08:08:49.736Z,14.63
2023-02-09T08:11:20.287Z,16.35
2023-02-09T08:13:48.965Z,14.63
2023-02-09T08:16:20.253Z,15.27
2023-02-09T08:18:54.388Z,14.18
2023-02-09T08:21:22.333Z,15.85
2023-02-09T08:23:54.672Z,16.17
2023-02-09T08:28:49.148Z,14.07
2023-02-09T08:31:18.857Z,14.70
2023-02-09T08:33:47.997Z,14.40
2023-02-09T08:36:16.750Z,15.02
2023-02-09T08:38:44.634Z,14.38
2023-02-09T08:41:13.950Z,15.30
2023-02-09T08:43:47.754Z,15.43
2023-02-09T08:46:15.102Z,14.68
2023-02-09T08:48:45.014Z,16.95
2023-02-09T08:51:13.600Z,14.07
2023-02-09T08:53:41.366Z,14.60
2023-02-09T08:56:08.802Z,13.30
2023-02-09T08:58:35.817Z,12.82
2023-02-09T09:01:03.071Z,14.32
2023-02-09T09:03:31.992Z,13.93
2023-02-09T09:06:01.107Z,13.52
2023-02-09T09:08:29.997Z,14.27
2023-02-09T09:10:57.175Z,13.10
2023-02-09T09:13:24.867Z,14.18
2023-02-09T09:15:52.793Z,14.05
2023-02-09T09:18:19.867Z,13.50
2023-02-09T09:20:47.260Z,12.27
2023-02-09T09:23:14.491Z,11.70
2023-02-09T09:25:42.196Z,12.05
2023-02-09T09:28:09.676Z,13.38
2023-02-09T09:30:37.563Z,12.35
2023-02-09T09:33:05.863Z,12.63
2023-02-09T09:35:33.184Z,12.52
2023-02-09T09:38:00.846Z,12.65
2023-02-09T09:40:31.996Z,13.10
2023-02-09T09:43:02.121Z,12.70
2023-02-09T09:45:32.970Z,12.05
2023-02-09T09:48:00.169Z,12.80
2023-02-09T09:50:36.335Z,12.93
2023-02-09T09:53:20.769Z,12.70
2023-02-09T09:55:55.385Z,11.90
2023-02-09T09:58:22.423Z,12.20
2023-02-09T10:00:50.165Z,12.50
2023-02-09T10:03:20.164Z,13.20
2023-02-09T10:05:59.751Z,13.55
2023-02-09T10:08:41.747Z,14.55
2023-02-09T10:11:11.784Z,13.70
2023-02-09T10:13:49.688Z,12.63
2023-02-09T10:16:27.205Z,13.18
2023-02-09T10:19:06.442Z,13.60
2023-02-09T10:21:36.037Z,13.88
2023-02-09T10:24:12.104Z,12.98
2023-02-09T10:26:40.746Z,12.60
2023-02-09T10:29:11.753Z,13.77
2023-02-09T10:31:42.740Z,13.00
2023-02-09T10:34:15.311Z,12.75
2023-02-09T10:36:54.558Z,12.88
2023-02-09T10:39:31.051Z,11.60
2023-02-09T10:42:17.823Z,12.48
2023-02-09T10:44:53.198Z,12.07
2023-02-09T10:47:20.203Z,16.10
2023-02-09T10:50:19.886Z,12.88
2023-02-09T10:53:19.189Z,12.48
2023-02-09T10:55:47.229Z,12.88
2023-02-09T10:58:37.615Z,11.23
2023-02-09T11:01:22.147Z,12.88
2023-02-09T11:04:17.603Z,12.32
2023-02-09T11:07:02.438Z,12.27
2023-02-09T11:09:33.711Z,12.73
2023-02-09T11:12:01.616Z,12.65
2023-02-09T11:14:28.726Z,12.13
2023-02-09T11:17:13.104Z,13.80
2023-02-09T11:20:04.737Z,13.82
2023-02-09T11:23:04.165Z,11.77
2023-02-09T11:25:48.395Z,11.88
2023-02-09T11:28:35.063Z,11.57
2023-02-09T11:31:17.516Z,12.88
2023-02-09T11:34:10.928Z,12.98
2023-02-09T11:36:53.074Z,12.25
2023-02-09T11:39:30.760Z,12.95
2023-02-09T11:42:25.440Z,11.70
2023-02-09T11:45:00.820Z,12.60
2023-02-09T11:48:00.614Z,12.45
2023-02-09T11:50:56.243Z,12.45
2023-02-09T11:54:03.197Z,12.60
2023-02-09T11:56:30.788Z,12.85
2023-02-09T11:58:57.752Z,11.43
2023-02-09T12:01:52.121Z,10.73
2023-02-09T12:04:28.122Z,11.73
2023-02-09T12:06:58.854Z,12.30
2023-02-09T12:09:33.377Z,10.93
2023-02-09T12:12:25.769Z,12.43
2023-02-09T12:14:54.482Z,12.32
2023-02-09T12:17:52.651Z,10.85
2023-02-09T12:20:44.769Z,10.75
2023-02-09T12:23:34.124Z,11.38
2023-02-09T12:26:01.163Z,9.80
2023-02-09T12:28:48.582Z,11.20
2023-02-09T12:31:23.470Z,12.27
2023-02-09T12:33:59.367Z,12.15
2023-02-09T12:36:31.691Z,10.05
2023-02-09T12:39:05.566Z,11.88
2023-02-09T12:41:40.994Z,10.65
2023-02-09T12:44:11.031Z,10.40
2023-02-09T12:46:44.126Z,10.60
2023-02-09T12:49:11.129Z,9.95
2023-02-09T12:51:50.284Z,10.50
2023-02-09T12:54:31.660Z,10.35
2023-02-09T12:57:17.132Z,9.88
2023-02-09T12:59:50.356Z,8.85
2023-02-09T13:02:43.196Z,8.85
2023-02-09T13:05:27.349Z,8.52
2023-02-09T13:08:05.920Z,8.65
2023-02-09T13:10:51.674Z,8.57
2023-02-09T13:13:26.416Z,8.35
2023-02-09T13:16:05.660Z,9.05
2023-02-09T13:19:05.517Z,10.45
2023-02-09T13:21:38.474Z,9.20
2023-02-09T13:24:08.326Z,8.43
2023-02-09T13:26:37.696Z,9.18
2023-02-09T13:29:19.979Z,9.05
2023-02-09T13:31:58.516Z,7.57
2023-02-09T13:34:42.185Z,8.07
2023-02-09T13:37:36.286Z,7.30
2023-02-09T13:40:16.625Z,7.63
2023-02-09T13:43:05.797Z,9.13
2023-02-09T13:45:32.914Z,8.57
2023-02-09T13:48:00.601Z,8.30
2023-02-09T13:50:31.929Z,8.07
2023-02-09T13:53:09.866Z,7.97
2023-02-09T13:55:42.748Z,8.40
2023-02-09T13:58:17.887Z,8.20
2023-02-09T14:01:07.850Z,6.38
2023-02-09T14:03:57.946Z,6.90
2023-02-09T14:06:49.632Z,6.57
2023-02-09T14:09:26.837Z,6.13
2023-02-09T14:12:09.651Z,7.00
2023-02-09T14:15:03.330Z,6.80
2023-02-09T14:17:34.977Z,7.32
2023-02-09T14:20:03.251Z,8.00
2023-02-09T14:22:36.598Z,8.40
2023-02-09T14:25:15.777Z,8.07
2023-02-09T14:27:47.377Z,7.45
2023-02-09T14:30:25.577Z,9.30
2023-02-09T14:32:57.865Z,6.90
2023-02-09T14:35:30.235Z,7.32
2023-02-09T14:38:00.078Z,6.40
2023-02-09T14:40:27.172Z,6.60
2023-02-09T14:43:00.177Z,6.00
2023-02-09T14:45:39.528Z,6.13
2023-02-09T14:48:28.898Z,7.40
2023-02-09T14:50:59.283Z,6.80
2023-02-09T14:53:29.232Z,6.05
2023-02-09T14:55:57.511Z,7.10
2023-02-09T14:58:28.404Z,7.18
2023-02-09T15:00:58.066Z,6.20
2023-02-09T15:03:25.254Z,6.97
2023-02-09T15:05:57.005Z,7.65
2023-02-09T15:08:26.834Z,7.00
2023-02-09T15:10:57.565Z,7.07
2023-02-09T15:13:29.181Z,7.25
2023-02-09T15:15:56.329Z,6.37
2023-02-09T15:18:26.490Z,7.47
2023-02-09T15:20:53.953Z,7.45
2023-02-09T15:23:21.040Z,7.60
2023-02-09T15:25:48.482Z,6.68
2023-02-09T15:28:28.477Z,6.90
2023-02-09T15:30:57.279Z,6.35
2023-02-09T15:33:28.782Z,6.03
2023-02-09T15:35:59.027Z,7.80
2023-02-09T15:38:28.235Z,7.45
2023-02-09T15:41:14.403Z,6.35
2023-02-09T15:43:59.708Z,7.10
2023-02-09T15:46:45.537Z,7.47
2023-02-09T15:49:12.602Z,7.40
2023-02-09T15:51:40.985Z,6.88
2023-02-09T15:54:19.903Z,7.10
2023-02-09T15:56:47.163Z,6.70
2023-02-09T15:59:22.524Z,7.88
2023-02-09T16:01:50.340Z,7.30
2023-02-09T16:04:17.901Z,7.68
2023-02-09T16:06:50.614Z,7.68
2023-02-09T16:09:21.212Z,8.57
2023-02-09T16:11:48.616Z,8.20
2023-02-09T16:14:21.443Z,7.55
2023-02-09T16:16:49.189Z,8.57
2023-02-09T16:19:19.664Z,8.57
2023-02-09T16:21:50.611Z,7.95
2023-02-09T16:24:35.682Z,8.50
2023-02-09T16:27:12.831Z,8.23
2023-02-09T16:29:39.929Z,7.95
2023-02-09T16:32:15.486Z,8.75
2023-02-09T16:34:43.194Z,9.18
2023-02-09T16:37:15.431Z,8.52
2023-02-09T16:39:43.718Z,7.97
2023-02-09T16:42:15.453Z,8.48
2023-02-09T16:44:42.966Z,9.27
2023-02-09T16:47:18.232Z,8.88
2023-02-09T16:50:01.429Z,11.02
2023-02-09T16:52:30.144Z,10.60
2023-02-09T16:54:59.639Z,10.52
2023-02-09T16:57:28.152Z,10.35
2023-02-09T16:59:55.600Z,10.63
2023-02-09T17:02:29.715Z,8.60
2023-02-09T17:04:57.927Z,10.35
2023-02-09T17:07:30.464Z,11.07
2023-02-09T17:12:24.533Z,11.07
2023-02-09T17:14:51.517Z,12.30
2023-02-09T17:17:21.239Z,9.77
2023-02-09T17:19:49.931Z,11.27
2023-02-09T17:22:17.882Z,13.38
2023-02-09T17:24:47.079Z,13.32
2023-02-09T17:27:14.331Z,13.55
2023-02-09T17:29:41.422Z,13.93
2023-02-09T17:32:13.456Z,12.52
2023-02-09T17:34:41.940Z,12.15
2023-02-09T17:37:13.541Z,11.60
2023-02-09T17:39:40.955Z,12.30
2023-02-09T17:42:20.300Z,11.82
2023-02-09T17:44:47.505Z,12.23
2023-02-09T17:47:19.413Z,13.45
2023-02-09T17:49:47.593Z,13.27
2023-02-09T17:52:19.573Z,10.80
2023-02-09T17:54:47.549Z,13.45
2023-02-09T17:57:16.552Z,11.50
2023-02-09T17:59:43.740Z,10.50
2023-02-09T18:02:16.662Z,10.95
2023-02-09T18:04:44.386Z,10.88
2023-02-09T18:07:12.669Z,11.55
2023-02-09T18:09:39.766Z,11.48
2023-02-09T18:12:16.705Z,11.50
2023-02-09T18:14:43.707Z,13.70
2023-02-09T18:17:10.819Z,15.35
2023-02-09T18:19:37.868Z,15.50
2023-02-09T18:22:05.044Z,14.05
2023-02-09T18:24:34.744Z,14.45
2023-02-09T18:27:02.259Z,12.75
2023-02-09T18:29:30.012Z,14.05
2023-02-09T18:32:01.828Z,12.57
2023-02-09T18:34:29.951Z,12.60
2023-02-09T18:36:56.979Z,11.55
2023-02-09T18:39:24.194Z,14.48
2023-02-09T18:41:54.074Z,14.25
2023-02-09T18:44:28.394Z,14.77
2023-02-09T18:46:56.212Z,12.82
2023-02-09T18:49:23.312Z,15.82
2023-02-09T18:51:52.074Z,15.93
2023-02-09T18:54:19.409Z,15.70
2023-02-09T18:56:46.453Z,16.92
2023-02-09T18:59:13.597Z,16.88
2023-02-09T19:01:40.990Z,15.23
2023-02-09T19:04:08.319Z,14.50
2023-02-09T19:06:35.588Z,14.52
2023-02-09T19:09:03.569Z,15.77
2023-02-09T19:11:30.640Z,15.77
2023-02-09T19:14:16.662Z,15.40
2023-02-09T19:16:43.759Z,13.35
2023-02-09T19:19:12.478Z,15.70
2023-02-09T19:21:39.698Z,14.63
2023-02-09T19:24:06.720Z,14.50
2023-02-09T19:26:34.039Z,16.60
2023-02-09T19:29:01.090Z,15.40
2023-02-09T19:31:28.138Z,15.70
2023-02-09T19:33:56.647Z,16.02
2023-02-09T19:36:25.076Z,16.48
2023-02-09T19:38:52.396Z,16.55
2023-02-09T19:41:20.530Z,17.85
2023-02-09T19:43:47.681Z,17.70
2023-02-09T19:46:14.984Z,16.80
2023-02-09T19:48:42.393Z,16.38
2023-02-09T19:51:09.493Z,16.00
2023-02-09T19:53:36.502Z,16.30
2023-02-09T19:56:03.786Z,16.30
2023-02-09T19:58:30.889Z,17.10
2023-02-09T20:00:57.987Z,14.52
2023-02-09T20:03:25.142Z,15.40
2023-02-09T20:05:52.359Z,15.75
2023-02-09T20:08:20.027Z,15.52
2023-02-09T20:10:47.577Z,16.58
2023-02-09T20:13:15.519Z,16.05
2023-02-09T20:15:44.196Z,16.35
2023-02-09T20:18:13.386Z,14.90
2023-02-09T20:20:43.331Z,15.97
2023-02-09T20:23:10.598Z,16.40
2023-02-09T20:25:42.278Z,15.75
2023-02-09T20:28:12.788Z,15.25
2023-02-09T20:30:41.914Z,17.55
2023-02-09T20:33:10.158Z,17.33
2023-02-09T20:35:45.471Z,17.38
2023-02-09T20:38:12.891Z,16.17
2023-02-09T20:40:43.510Z,16.70
2023-02-09T20:43:30.667Z,15.60
2023-02-09T20:46:16.139Z,17.45
2023-02-09T20:48:44.392Z,15.20
2023-02-09T20:51:11.367Z,17.77
2023-02-09T20:53:38.559Z,15.25
2023-02-09T20:56:06.002Z,15.32
2023-02-09T20:58:33.027Z,16.77
2023-02-09T21:01:00.100Z,16.35
2023-02-09T21:03:27.436Z,16.15
2023-02-09T21:05:54.499Z,16.13
2023-02-09T21:08:22.864Z,15.30
2023-02-09T21:11:02.865Z,14.88
2023-02-09T21:13:29.922Z,14.80
2023-02-09T21:15:57.090Z,14.65
2023-02-09T21:18:25.200Z,16.70
2023-02-09T21:20:52.653Z,17.27
2023-02-09T21:23:19.926Z,15.45
2023-02-09T21:25:46.928Z,14.75
2023-02-09T21:28:15.076Z,15.75
2023-02-09T21:30:43.462Z,16.23
2023-02-09T21:33:12.504Z,15.07
2023-02-09T21:35:40.901Z,15.73
2023-02-09T21:38:07.918Z,16.08
2023-02-09T21:40:35.003Z,19.42
2023-02-09T21:43:02.060Z,17.88
2023-02-09T21:45:29.509Z,17.17
2023-02-09T21:47:59.159Z,17.98
2023-02-09T21:50:26.215Z,17.52
2023-02-09T21:52:54.845Z,18.23
2023-02-09T21:55:21.975Z,16.52
2023-02-09T21:57:49.010Z,16.20
2023-02-09T22:00:16.387Z,15.57
2023-02-09T22:02:43.422Z,16.02
2023-02-09T22:05:12.014Z,17.40
2023-02-09T22:07:39.042Z,16.73
2023-02-09T22:10:06.635Z,16.35
2023-02-09T22:12:34.886Z,15.70
2023-02-09T22:15:02.335Z,14.95
2023-02-09T22:17:29.315Z,15.82
2023-02-09T22:19:56.570Z,15.60
2023-02-09T22:22:23.843Z,17.23
2023-02-09T22:24:50.831Z,17.58
2023-02-09T22:27:17.838Z,17.20
2023-02-09T22:29:46.277Z,18.30
2023-02-09T22:32:13.304Z,18.20
2023-02-09T22:34:40.303Z,18.73
2023-02-09T22:37:07.348Z,16.58
2023-02-09T22:39:34.358Z,16.23
2023-02-09T22:42:01.338Z,16.73
2023-02-09T22:44:29.996Z,17.35
2023-02-09T22:46:57.134Z,17.23
2023-02-09T22:49:24.141Z,16.45
2023-02-09T22:51:51.225Z,16.20
2023-02-09T22:54:19.836Z,16.48
2023-02-09T22:56:46.977Z,16.83
2023-02-09T22:59:15.176Z,16.42
2023-02-09T23:01:43.236Z,15.60
2023-02-09T23:04:10.677Z,15.90
2023-02-09T23:06:37.750Z,16.88
2023-02-09T23:09:07.405Z,18.75
2023-02-09T23:11:35.253Z,17.85
2023-02-09T23:14:10.101Z,15.65
2023-02-09T23:16:39.484Z,15.00
2023-02-09T23:19:09.185Z,15.95
2023-02-09T23:22:27.909Z,16.05
2023-02-09T23:24:55.287Z,15.88
2023-02-09T23:27:22.277Z,16.08
2023-02-09T23:29:49.331Z,16.02
2023-02-09T23:32:16.368Z,15.00
2023-02-09T23:34:43.469Z,16.13
2023-02-09T23:37:18.742Z,14.55
2023-02-09T23:39:50.653Z,16.50
2023-02-09T23:42:17.652Z,15.43
2023-02-09T23:44:44.692Z,15.90
2023-02-09T23:47:14.979Z,14.85
2023-02-09T23:49:42.134Z,16.63
2023-02-09T23:52:09.357Z,15.18
2023-02-09T23:54:36.347Z,16.65
2023-02-09T23:57:03.576Z,16.08
2023-02-09T23:59:30.589Z,15.18
